createdAt,value
2022-11-08T00:01:34.601Z,8.60
2022-11-08T00:04:22.327Z,9.20
2022-11-08T00:07:29.770Z,6.13
2022-11-08T00:10:35.900Z,4.57
2022-11-08T00:13:42.143Z,4.50
2022-11-08T00:16:29.958Z,4.17
2022-11-08T00:19:17.338Z,6.47
2022-11-08T00:22:04.762Z,9.33
2022-11-08T00:24:52.249Z,6.20
2022-11-08T00:27:39.616Z,5.37
2022-11-08T00:30:27.082Z,5.97
2022-11-08T00:33:14.496Z,7.20
2022-11-08T00:36:02.619Z,6.10
2022-11-08T00:38:49.953Z,6.30
2022-11-08T00:41:37.522Z,4.47
2022-11-08T00:44:25.003Z,5.87
2022-11-08T00:47:12.354Z,4.23
2022-11-08T00:49:59.750Z,5.43
2022-11-08T00:52:47.102Z,5.90
2022-11-08T00:55:34.479Z,6.60
2022-11-08T00:58:27.001Z,6.63
2022-11-08T01:01:17.284Z,5.23
2022-11-08T01:04:04.736Z,4.20
2022-11-08T01:06:52.061Z,5.63
2022-11-08T01:09:39.444Z,5.50
2022-11-08T01:12:26.849Z,5.27
2022-11-08T01:15:14.299Z,4.27
2022-11-08T01:18:01.694Z,8.03
2022-11-08T01:20:50.210Z,5.93
2022-11-08T01:23:37.938Z,4.53
2022-11-08T01:26:26.895Z,6.70
2022-11-08T01:29:14.376Z,3.33
2022-11-08T01:32:01.722Z,4.83
2022-11-08T01:34:49.059Z,4.87
2022-11-08T01:37:36.454Z,4.77
2022-11-08T01:40:23.886Z,6.50
2022-11-08T01:43:26.581Z,4.33
2022-11-08T01:46:13.910Z,5.70
2022-11-08T01:49:07.232Z,6.47
2022-11-08T01:52:03.475Z,6.40
2022-11-08T01:54:50.812Z,5.67
2022-11-08T01:57:38.323Z,5.53
2022-11-08T02:00:25.802Z,8.17
2022-11-08T02:03:15.068Z,4.40
2022-11-08T02:06:04.312Z,4.33
2022-11-08T02:08:51.881Z,5.40
2022-11-08T02:11:40.189Z,8.27
2022-11-08T02:14:27.620Z,2.97
2022-11-08T02:17:15.167Z,3.57
2022-11-08T02:20:02.526Z,5.93
2022-11-08T02:23:05.887Z,10.47
2022-11-08T02:25:53.810Z,3.40
2022-11-08T02:28:45.341Z,4.57
2022-11-08T02:31:33.055Z,7.57
2022-11-08T02:34:21.516Z,6.73
2022-11-08T02:37:09.019Z,7.50
2022-11-08T02:39:56.373Z,10.03
2022-11-08T02:42:43.888Z,7.27
2022-11-08T02:45:31.202Z,8.87
2022-11-08T02:48:19.708Z,6.23
2022-11-08T02:51:07.375Z,5.30
2022-11-08T02:53:54.760Z,7.20
2022-11-08T02:56:42.177Z,7.47
2022-11-08T02:59:29.579Z,2.77
2022-11-08T03:02:17.104Z,6.10
2022-11-08T03:05:04.647Z,5.40
2022-11-08T03:07:52.037Z,5.43
2022-11-08T03:10:39.509Z,6.97
2022-11-08T03:13:26.894Z,4.80
2022-11-08T03:16:14.425Z,5.20
2022-11-08T03:19:02.961Z,5.13
2022-11-08T03:21:50.351Z,6.90
2022-11-08T03:24:37.739Z,7.50
2022-11-08T03:27:25.107Z,6.90
2022-11-08T03:30:12.552Z,4.67
2022-11-08T03:33:00.138Z,3.93
2022-11-08T03:35:48.496Z,6.80
2022-11-08T03:38:35.860Z,4.73
2022-11-08T03:41:23.294Z,5.23
2022-11-08T03:44:10.623Z,7.07
2022-11-08T03:46:58.254Z,2.57
2022-11-08T03:49:45.589Z,6.43
2022-11-08T03:52:32.980Z,11.33
2022-11-08T03:55:21.422Z,14.30
2022-11-08T03:58:08.833Z,12.47
2022-11-08T04:00:58.182Z,11.53
2022-11-08T04:03:45.675Z,18.63
2022-11-08T04:06:33.486Z,14.07
2022-11-08T04:09:21.794Z,23.83
2022-11-08T04:12:28.138Z,18.97
2022-11-08T04:15:17.090Z,32.70
2022-11-08T04:18:23.231Z,9.43
2022-11-08T04:21:19.317Z,11.23
2022-11-08T04:24:06.861Z,11.53
2022-11-08T04:26:54.234Z,20.23
2022-11-08T04:29:41.566Z,25.27
2022-11-08T04:32:28.888Z,19.50
2022-11-08T04:35:16.403Z,13.63
2022-11-08T04:38:04.142Z,10.37
2022-11-08T04:40:51.491Z,7.80
2022-11-08T04:43:39.191Z,5.90
2022-11-08T04:46:27.531Z,6.50
2022-11-08T04:49:14.853Z,8.27
2022-11-08T04:52:02.262Z,6.60
2022-11-08T04:54:49.601Z,6.13
2022-11-08T04:57:37.054Z,7.47
2022-11-08T05:00:24.420Z,9.60
2022-11-08T05:03:11.856Z,7.17
2022-11-08T05:06:04.766Z,6.07
2022-11-08T05:08:52.299Z,5.70
2022-11-08T05:11:39.655Z,4.43
2022-11-08T05:14:27.001Z,9.13
2022-11-08T05:17:14.513Z,13.13
2022-11-08T05:20:20.614Z,4.70
2022-11-08T05:23:24.968Z,4.73
2022-11-08T05:26:12.609Z,9.23
2022-11-08T05:28:59.970Z,11.80
2022-11-08T05:31:47.311Z,26.07
2022-11-08T05:34:34.686Z,36.63
2022-11-08T05:37:22.062Z,32.00
2022-11-08T05:40:10.027Z,41.87
2022-11-08T05:42:57.416Z,15.13
2022-11-08T05:45:45.895Z,9.97
2022-11-08T05:48:33.613Z,6.87
2022-11-08T05:51:21.134Z,5.67
2022-11-08T05:54:08.552Z,6.30
2022-11-08T05:56:55.985Z,8.87
2022-11-08T05:59:43.375Z,7.97
2022-11-08T06:02:33.021Z,6.07
2022-11-08T06:05:20.419Z,8.27
2022-11-08T06:08:07.782Z,6.63
2022-11-08T06:10:55.178Z,6.43
2022-11-08T06:13:42.755Z,6.50
2022-11-08T06:16:30.072Z,7.23
2022-11-08T06:19:17.573Z,6.50
2022-11-08T06:22:04.897Z,4.33
2022-11-08T06:24:52.256Z,3.63
2022-11-08T06:27:39.617Z,7.50
2022-11-08T06:30:26.969Z,7.27
2022-11-08T06:33:14.422Z,8.30
2022-11-08T06:36:02.169Z,6.97
2022-11-08T06:38:53.898Z,7.47
2022-11-08T06:41:41.249Z,8.97
2022-11-08T06:44:28.594Z,7.97
2022-11-08T06:47:16.025Z,6.30
2022-11-08T06:50:03.309Z,6.43
2022-11-08T06:52:59.560Z,7.87
2022-11-08T06:55:46.477Z,6.27
2022-11-08T06:58:33.563Z,5.27
2022-11-08T07:01:21.667Z,6.30
2022-11-08T07:04:10.738Z,5.63
2022-11-08T07:06:57.675Z,3.60
2022-11-08T07:09:44.811Z,7.00
2022-11-08T07:12:31.801Z,8.40
2022-11-08T07:15:22.868Z,7.67
2022-11-08T07:18:12.433Z,6.43
2022-11-08T07:21:00.661Z,9.53
2022-11-08T07:23:48.579Z,8.13
2022-11-08T07:26:35.961Z,5.07
2022-11-08T07:29:22.881Z,10.13
2022-11-08T07:32:09.827Z,5.57
2022-11-08T07:34:56.730Z,9.53
2022-11-08T07:37:43.641Z,7.67
2022-11-08T07:40:30.666Z,8.70
2022-11-08T07:43:18.584Z,6.67
2022-11-08T07:46:05.514Z,9.93
2022-11-08T07:48:52.435Z,13.87
2022-11-08T07:51:39.428Z,12.17
2022-11-08T07:54:26.382Z,21.00
2022-11-08T07:57:13.827Z,26.17
2022-11-08T08:00:06.323Z,10.97
2022-11-08T08:03:02.215Z,5.60
2022-11-08T08:05:57.983Z,7.83
2022-11-08T08:08:47.621Z,8.40
2022-11-08T08:11:34.558Z,4.07
2022-11-08T08:14:21.474Z,7.43
2022-11-08T08:17:08.430Z,4.60
2022-11-08T08:19:55.357Z,6.20
2022-11-08T08:22:50.185Z,3.93
2022-11-08T08:25:37.149Z,10.00
2022-11-08T08:28:24.402Z,6.80
2022-11-08T08:31:12.677Z,7.23
2022-11-08T08:33:59.561Z,6.27
2022-11-08T08:36:46.513Z,7.37
2022-11-08T08:39:33.461Z,5.30
2022-11-08T08:42:20.373Z,6.87
2022-11-08T08:45:13.579Z,6.40
2022-11-08T08:48:02.584Z,5.27
2022-11-08T08:50:49.471Z,7.03
2022-11-08T08:53:36.462Z,7.27
2022-11-08T08:56:23.408Z,4.90
2022-11-08T09:02:17.733Z,5.83
2022-11-08T09:05:04.927Z,2.67
2022-11-08T09:07:55.515Z,5.07
2022-11-08T09:10:43.216Z,5.67
2022-11-08T09:13:31.081Z,7.00
2022-11-08T09:16:18.634Z,10.07
2022-11-08T09:19:05.549Z,4.07
2022-11-08T09:21:53.235Z,2.93
2022-11-08T09:24:40.516Z,4.75
2022-11-08T09:27:29.389Z,4.68
2022-11-08T09:30:16.353Z,2.63
2022-11-08T09:33:03.718Z,3.65
2022-11-08T09:35:53.752Z,3.97
2022-11-08T09:38:42.331Z,2.60
2022-11-08T09:41:51.413Z,5.25
2022-11-08T09:45:03.935Z,4.60
2022-11-08T09:48:05.750Z,4.63
2022-11-08T09:50:55.069Z,5.28
2022-11-08T09:53:56.515Z,3.95
2022-11-08T09:56:45.522Z,4.65
2022-11-08T09:59:43.230Z,3.10
2022-11-08T10:02:32.730Z,5.15
2022-11-08T10:05:21.124Z,4.10
2022-11-08T10:08:18.595Z,5.15
2022-11-08T10:11:21.133Z,4.95
2022-11-08T10:14:30.328Z,2.78
2022-11-08T10:17:29.459Z,4.95
2022-11-08T10:20:39.437Z,5.03
2022-11-08T10:23:53.155Z,3.40
2022-11-08T10:26:45.141Z,4.30
2022-11-08T10:29:43.814Z,5.47
2022-11-08T10:32:33.857Z,3.67
2022-11-08T10:35:41.120Z,7.00
2022-11-08T10:38:43.763Z,5.30
2022-11-08T10:41:38.687Z,4.50
2022-11-08T10:44:27.959Z,3.53
2022-11-08T10:47:33.176Z,4.43
2022-11-08T10:50:32.074Z,4.80
2022-11-08T10:53:32.724Z,3.80
2022-11-08T10:56:20.946Z,4.50
2022-11-08T10:59:31.019Z,2.67
2022-11-08T11:02:22.505Z,5.87
2022-11-08T11:05:36.894Z,4.37
2022-11-08T11:08:24.783Z,7.17
2022-11-08T11:11:31.980Z,3.10
2022-11-08T11:14:23.195Z,6.97
2022-11-08T11:17:18.666Z,3.87
2022-11-08T11:20:06.082Z,6.13
2022-11-08T11:22:54.127Z,5.97
2022-11-08T11:25:50.758Z,4.27
2022-11-08T11:28:37.864Z,6.93
2022-11-08T11:31:24.816Z,3.30
2022-11-08T11:34:18.983Z,5.10
2022-11-08T11:37:09.201Z,4.20
2022-11-08T11:40:26.513Z,3.70
2022-11-08T11:43:53.426Z,6.70
2022-11-08T11:46:53.582Z,2.80
2022-11-08T11:49:45.164Z,6.73
2022-11-08T11:52:32.153Z,3.27
2022-11-08T11:55:24.722Z,3.03
2022-11-08T11:58:49.548Z,4.23
2022-11-08T12:02:07.249Z,5.53
2022-11-08T12:05:22.028Z,5.43
2022-11-08T12:08:26.351Z,2.47
2022-11-08T12:11:45.936Z,3.43
2022-11-08T12:14:54.072Z,5.63
2022-11-08T12:18:18.154Z,3.20
2022-11-08T12:21:21.031Z,2.37
2022-11-08T12:24:29.422Z,3.70
2022-11-08T12:27:37.613Z,2.87
2022-11-08T12:30:43.747Z,5.43
2022-11-08T12:33:39.819Z,4.53
2022-11-08T12:36:42.347Z,5.97
2022-11-08T12:39:45.292Z,3.70
2022-11-08T12:42:45.876Z,2.80
2022-11-08T12:45:35.952Z,5.40
2022-11-08T12:48:57.675Z,3.50
2022-11-08T12:52:10.921Z,3.67
2022-11-08T12:55:04.735Z,3.57
2022-11-08T12:57:54.761Z,3.03
2022-11-08T13:00:44.371Z,3.57
2022-11-08T13:03:37.681Z,6.17
2022-11-08T13:06:47.005Z,5.33
2022-11-08T13:09:45.842Z,3.53
2022-11-08T13:13:02.426Z,3.87
2022-11-08T13:16:11.633Z,3.23
2022-11-08T13:19:01.255Z,3.53
2022-11-08T13:21:48.444Z,4.17
2022-11-08T13:24:45.396Z,3.37
2022-11-08T13:27:41.167Z,4.37
2022-11-08T13:30:34.273Z,7.50
2022-11-08T13:33:29.362Z,5.90
2022-11-08T13:36:43.969Z,3.73
2022-11-08T13:39:51.892Z,3.63
2022-11-08T13:42:49.703Z,3.13
2022-11-08T13:45:38.913Z,4.23
2022-11-08T13:48:33.403Z,2.90
2022-11-08T13:51:38.665Z,6.13
2022-11-08T13:54:31.092Z,3.27
2022-11-08T13:57:19.693Z,3.27
2022-11-08T14:00:09.688Z,3.13
2022-11-08T14:02:57.177Z,4.57
2022-11-08T14:05:49.112Z,3.77
2022-11-08T14:08:42.953Z,3.37
2022-11-08T14:11:59.956Z,4.00
2022-11-08T14:14:48.892Z,2.57
2022-11-08T14:17:36.274Z,2.43
2022-11-08T14:20:23.645Z,3.53
2022-11-08T14:23:21.232Z,3.83
2022-11-08T14:26:23.326Z,3.50
2022-11-08T14:29:11.493Z,3.53
2022-11-08T14:32:06.865Z,4.20
2022-11-08T14:35:10.527Z,3.47
2022-11-08T14:37:57.929Z,5.00
2022-11-08T14:40:49.791Z,2.50
2022-11-08T14:43:43.100Z,3.07
2022-11-08T14:46:38.006Z,4.20
2022-11-08T14:49:31.399Z,4.13
2022-11-08T14:52:22.374Z,4.33
2022-11-08T14:55:11.405Z,2.87
2022-11-08T14:57:58.752Z,5.53
2022-11-08T15:00:47.723Z,2.53
2022-11-08T15:03:35.325Z,3.77
2022-11-08T15:06:23.585Z,3.23
2022-11-08T15:09:24.723Z,2.07
2022-11-08T15:12:17.243Z,2.53
2022-11-08T15:15:04.756Z,3.73
2022-11-08T15:18:11.343Z,3.00
2022-11-08T15:21:04.104Z,2.60
2022-11-08T15:23:53.309Z,1.93
2022-11-08T15:26:40.913Z,4.20
2022-11-08T15:29:29.278Z,2.93
2022-11-08T15:32:17.830Z,2.73
2022-11-08T15:35:05.760Z,2.70
2022-11-08T15:37:59.439Z,3.70
2022-11-08T15:40:54.140Z,2.53
2022-11-08T15:43:41.656Z,2.33
2022-11-08T15:46:34.161Z,2.23
2022-11-08T15:49:23.176Z,2.13
2022-11-08T15:52:10.526Z,4.97
2022-11-08T15:54:57.894Z,3.80
2022-11-08T15:57:46.336Z,2.20
2022-11-08T16:00:38.117Z,2.90
2022-11-08T16:03:25.859Z,6.47
2022-11-08T16:06:13.354Z,3.27
2022-11-08T16:09:00.723Z,2.90
2022-11-08T16:11:48.845Z,3.07
2022-11-08T16:14:36.496Z,3.63
2022-11-08T16:17:23.960Z,2.10
2022-11-08T16:20:24.315Z,4.70
2022-11-08T16:23:12.180Z,2.70
2022-11-08T16:26:00.851Z,2.57
2022-11-08T16:28:48.244Z,2.03
2022-11-08T16:31:35.588Z,3.00
2022-11-08T16:34:23.225Z,2.13
2022-11-08T16:37:11.549Z,3.87
2022-11-08T16:39:59.089Z,3.43
2022-11-08T16:42:47.350Z,2.60
2022-11-08T16:46:03.308Z,3.40
2022-11-08T16:48:46.782Z,4.27
2022-11-08T16:51:34.517Z,5.20
2022-11-08T16:54:28.199Z,2.73
2022-11-08T17:00:23.251Z,2.60
2022-11-08T17:03:22.118Z,3.33
2022-11-08T17:06:12.989Z,3.50
2022-11-08T17:09:00.328Z,2.13
2022-11-08T17:11:47.849Z,4.10
2022-11-08T17:14:35.206Z,3.40
2022-11-08T17:17:22.821Z,2.37
2022-11-08T17:20:11.751Z,2.57
2022-11-08T17:22:59.154Z,4.20
2022-11-08T17:25:46.558Z,2.43
2022-11-08T17:28:34.315Z,3.57
2022-11-08T17:31:21.663Z,2.47
2022-11-08T17:34:09.075Z,4.77
2022-11-08T17:36:56.615Z,4.07
2022-11-08T17:39:44.090Z,4.53
2022-11-08T17:42:34.183Z,2.53
2022-11-08T17:45:24.536Z,3.60
2022-11-08T17:48:11.897Z,3.30
2022-11-08T17:50:59.605Z,2.80
2022-11-08T17:53:47.015Z,2.87
2022-11-08T17:56:34.525Z,2.60
2022-11-08T17:59:21.893Z,4.07
2022-11-08T18:02:09.813Z,4.83
2022-11-08T18:04:57.312Z,7.57
2022-11-08T18:07:45.124Z,3.10
2022-11-08T18:10:32.489Z,4.33
2022-11-08T18:13:20.282Z,4.93
2022-11-08T18:16:13.059Z,3.50
2022-11-08T18:19:00.462Z,3.97
2022-11-08T18:21:47.974Z,5.57
2022-11-08T18:24:35.474Z,2.80
2022-11-08T18:27:22.847Z,3.87
2022-11-08T18:30:10.563Z,3.07
2022-11-08T18:32:57.969Z,4.10
2022-11-08T18:35:45.435Z,5.90
2022-11-08T18:38:35.388Z,2.70
2022-11-08T18:41:25.191Z,2.77
2022-11-08T18:44:12.589Z,2.77
2022-11-08T18:46:59.943Z,3.27
2022-11-08T18:49:47.335Z,9.67
2022-11-08T18:52:34.682Z,4.20
2022-11-08T18:55:22.076Z,3.40
2022-11-08T18:58:09.416Z,4.03
2022-11-08T19:00:57.825Z,3.03
2022-11-08T19:03:45.695Z,2.43
2022-11-08T19:06:33.123Z,2.70
2022-11-08T19:09:20.666Z,2.63
2022-11-08T19:12:08.645Z,2.10
2022-11-08T19:14:56.014Z,4.93
2022-11-08T19:17:45.204Z,3.07
2022-11-08T19:20:34.641Z,3.70
2022-11-08T19:23:22.645Z,3.93
2022-11-08T19:26:17.321Z,2.03
2022-11-08T19:29:04.746Z,3.37
2022-11-08T19:31:52.124Z,2.87
2022-11-08T19:34:39.535Z,4.07
2022-11-08T19:37:26.863Z,1.90
2022-11-08T19:40:14.211Z,2.20
2022-11-08T19:43:01.525Z,3.87
2022-11-08T19:45:54.312Z,2.93
2022-11-08T19:48:42.835Z,7.40
2022-11-08T19:51:31.580Z,3.87
2022-11-08T19:54:19.185Z,6.43
2022-11-08T19:57:06.705Z,5.13
2022-11-08T19:59:54.257Z,3.57
2022-11-08T20:02:42.014Z,3.53
2022-11-08T20:05:29.586Z,6.40
2022-11-08T20:08:17.612Z,28.17
2022-11-08T20:11:22.137Z,9.03
2022-11-08T20:14:11.529Z,6.13
2022-11-08T20:16:58.963Z,2.97
2022-11-08T20:19:46.751Z,3.20
2022-11-08T20:22:34.169Z,4.60
2022-11-08T20:25:22.204Z,3.70
2022-11-08T20:28:09.588Z,3.03
2022-11-08T20:31:04.073Z,5.00
2022-11-08T20:33:53.130Z,2.80
2022-11-08T20:36:41.559Z,3.10
2022-11-08T20:39:30.767Z,3.33
2022-11-08T20:42:20.202Z,4.63
2022-11-08T20:45:12.095Z,4.23
2022-11-08T20:48:02.936Z,2.60
2022-11-08T20:50:50.466Z,4.47
2022-11-08T20:53:38.159Z,4.90
2022-11-08T20:56:26.589Z,3.47
2022-11-08T20:59:14.888Z,3.33
2022-11-08T21:02:02.509Z,3.57
2022-11-08T21:04:50.102Z,2.50
2022-11-08T21:08:02.055Z,2.87
2022-11-08T21:10:47.591Z,3.13
2022-11-08T21:13:36.089Z,4.43
2022-11-08T21:16:35.419Z,3.83
2022-11-08T21:19:25.977Z,2.50
2022-11-08T21:22:16.191Z,4.23
2022-11-08T21:25:03.606Z,5.13
2022-11-08T21:27:51.388Z,6.77
2022-11-08T21:30:39.018Z,5.60
2022-11-08T21:33:26.384Z,2.87
2022-11-08T21:36:13.855Z,3.57
2022-11-08T21:39:01.223Z,3.33
2022-11-08T21:41:48.631Z,4.83
2022-11-08T21:44:36.016Z,5.93
2022-11-08T21:47:23.352Z,3.77
2022-11-08T21:50:10.805Z,4.50
2022-11-08T21:52:58.136Z,3.60
2022-11-08T21:55:45.501Z,4.80
2022-11-08T21:58:32.916Z,4.43
2022-11-08T22:01:24.134Z,2.57
2022-11-08T22:04:14.499Z,6.10
2022-11-08T22:07:02.035Z,4.00
2022-11-08T22:09:49.517Z,4.37
2022-11-08T22:12:36.857Z,4.97
2022-11-08T22:15:24.218Z,4.77
2022-11-08T22:18:15.600Z,3.87
2022-11-08T22:21:25.936Z,4.07
2022-11-08T22:24:14.378Z,3.00
2022-11-08T22:27:02.005Z,7.17
2022-11-08T22:29:49.352Z,4.97
2022-11-08T22:32:37.204Z,5.03
2022-11-08T22:35:24.565Z,4.07
2022-11-08T22:38:11.993Z,4.53
2022-11-08T22:40:59.349Z,6.27
2022-11-08T22:43:47.038Z,5.07
2022-11-08T22:46:34.417Z,11.07
2022-11-08T22:49:21.825Z,9.27
2022-11-08T22:52:09.187Z,7.67
2022-11-08T22:54:57.009Z,14.23
2022-11-08T22:57:44.361Z,14.03
2022-11-08T23:00:31.740Z,10.80
2022-11-08T23:03:19.563Z,6.63
2022-11-08T23:06:07.382Z,22.00
2022-11-08T23:08:54.740Z,10.57
2022-11-08T23:12:00.921Z,10.20
2022-11-08T23:15:06.808Z,12.43
2022-11-08T23:17:54.164Z,10.60
2022-11-08T23:21:00.467Z,19.90
2022-11-08T23:24:06.831Z,33.27
2022-11-08T23:27:13.168Z,12.70
2022-11-08T23:30:19.648Z,17.93
2022-11-08T23:33:07.192Z,17.67
2022-11-08T23:36:10.934Z,16.37
2022-11-08T23:38:58.775Z,11.37
2022-11-08T23:42:04.841Z,5.67
2022-11-08T23:44:52.178Z,4.53
2022-11-08T23:47:39.567Z,5.43
2022-11-08T23:50:26.918Z,2.80
2022-11-08T23:53:14.331Z,6.87
2022-11-08T23:56:01.670Z,3.10
2022-11-08T23:58:48.994Z,3.13
